Flight Track Log - Related Links

Times and Time Zones

All times are in EDT time to prevent confusion due to time zone crossing. See the SWA721 flight status page for this flight to view local times or setup timezone preferences in your user account.

Time Position Orientation Groundspeed Altitude Reporting Facility
EDT Latitude Longitude Course Direction KTS MPH feet Rate Location/Type
Sun 11:11:17 PM 27.9667 -82.5500 180° South 139 160 900  Level Tampa TRACON
Sun 11:12:05 PM 27.9333 -82.5500 180° South 156 180 2,600 2,301 Climbing Tampa TRACON
Sun 11:14:30 PM 27.9597 -82.6294 291° West 118 136 8,300 2,254 Climbing Jacksonville Center
Sun 11:15:30 PM 28.0494 -82.6175 North 218 251 10,300 2,200 Climbing Jacksonville Center
Sun 11:16:30 PM 28.1497 -82.6078 North 288 331 12,700 2,600 Climbing Jacksonville Center
Sun 11:17:30 PM 28.2561 -82.5956 North 338 389 15,500 2,900 Climbing Jacksonville Center
Sun 11:18:30 PM 28.3667 -82.5836 North 378 435 18,500 2,950 Climbing Jacksonville Center
Sun 11:19:30 PM 28.4833 -82.5856 359° North 398 458 21,400 2,650 Climbing Jacksonville Center
Sun 11:20:30 PM 28.6025 -82.5900 358° North 416 479 23,800 2,300 Climbing Jacksonville Center
Sun 11:21:30 PM 28.7339 -82.5967 357° North 422 486 26,000 1,100 Climbing Jacksonville Center
Sun 11:22:30 PM 28.8614 -82.6153 353° North 434 499 26,000 1,100 Level Jacksonville Center
Sun 11:23:30 PM 28.9886 -82.6339 353° North 446 513 28,200 2,250 Climbing Jacksonville Center
Sun 11:24:30 PM 29.1139 -82.6503 353° North 453 521 30,500 2,050 Climbing Jacksonville Center
Sun 11:25:30 PM 29.2369 -82.6569 357° North 453 521 32,300 1,950 Climbing Jacksonville Center
Sun 11:26:30 PM 29.3664 -82.6425 North 443 510 34,400 1,750 Climbing Jacksonville Center
Sun 11:27:30 PM 29.4917 -82.6278 North 443 510 35,800 1,400 Climbing Jacksonville Center
Sun 11:28:30 PM 29.6189 -82.6131 North 449 517 37,200 1,650 Climbing Jacksonville Center
Sun 11:29:30 PM 29.7339 -82.6031 North 449 517 39,100 1,250 Climbing Jacksonville Center
Sun 11:30:30 PM 29.8569 -82.5883 North 449 517 39,700 600 Climbing Jacksonville Center
Sun 11:31:30 PM 29.9842 -82.5761 North 449 517 40,300 600 Climbing Jacksonville Center
Sun 11:32:30 PM 30.1117 -82.5661 North 449 517 40,900 350 Climbing Jacksonville Center
Sun 11:33:30 PM 30.2431 -82.5511 North 454 522 41,000 50 Climbing Jacksonville Center
Sun 11:34:30 PM 30.3747 -82.5361 North 469 540 41,000  Level Jacksonville Center
Sun 11:35:30 PM 30.5019 -82.5236 North 469 540 41,000  Level Jacksonville Center
Sun 11:36:30 PM 30.6314 -82.5158 North 459 528 41,000  Level Jacksonville Center
Sun 11:37:30 PM 30.7544 -82.5083 North 453 521 41,000  Level Jacksonville Center
Sun 11:38:30 PM 30.8819 -82.5028 North 448 516 41,000  Level Jacksonville Center
Sun 11:39:30 PM 31.0072 -82.4950 North 448 516 41,000  Level Jacksonville Center
Sun 11:40:30 PM 31.1325 -82.4897 North 448 516 41,000  Level Jacksonville Center
Sun 11:41:30 PM 31.2575 -82.4794 North 448 516 41,000  Level Jacksonville Center
Sun 11:42:30 PM 31.3911 -82.4717 North 436 502 41,000  Level Jacksonville Center
Sun 11:43:30 PM 31.5144 -82.4636 North 436 502 41,000  Level Jacksonville Center
Sun 11:45:10 PM 31.7050 -82.4569 North 434 499 41,000  Level Atlanta Center
Sun 11:46:10 PM 31.8281 -82.4500 North 441 507 41,000  Level Atlanta Center
Sun 11:47:10 PM 31.9533 -82.4428 North 441 507 41,000  Level Atlanta Center
Sun 11:48:10 PM 32.0783 -82.4333 North 441 507 41,000  Level Atlanta Center
Sun 11:49:10 PM 32.2014 -82.4286 North 434 499 41,000  Level Atlanta Center
Sun 11:50:10 PM 32.3225 -82.4217 North 434 499 41,000  Level Atlanta Center
Sun 11:51:10 PM 32.4478 -82.4267 358° North 441 507 41,000  Level Atlanta Center
Sun 11:52:10 PM 32.5669 -82.4344 357° North 441 507 41,000  Level Atlanta Center
Sun 11:53:10 PM 32.6903 -82.4444 356° North 441 507 41,000  Level Atlanta Center
Sun 11:54:10 PM 32.8156 -82.4519 357° North 447 514 41,000  Level Atlanta Center
Sun 11:55:10 PM 32.9389 -82.4622 356° North 442 509 41,000  Level Atlanta Center
Sun 11:56:10 PM 33.0642 -82.4697 357° North 442 509 41,000  Level Atlanta Center
Sun 11:57:10 PM 33.1853 -82.4825 355° North 442 509 41,000  Level Atlanta Center
Sun 11:58:10 PM 33.2981 -82.4906 357° North 448 516 41,000  Level Atlanta Center
Sun 11:59:10 PM 33.4319 -82.5006 356° North 438 504 41,000  Level Atlanta Center
Mon 12:00:10 AM 33.5572 -82.5108 356° North 447 514 41,000  Level Atlanta Center
Mon 12:01:10 AM 33.6825 -82.5183 357° North 447 514 41,000  Level Atlanta Center
Mon 12:02:10 AM 33.8078 -82.5286 356° North 447 514 41,000  Level Atlanta Center
Mon 12:03:10 AM 33.9353 -82.5364 357° North 447 514 41,000  Level Atlanta Center
Mon 12:04:10 AM 34.0647 -82.5467 356° North 457 526 41,000  Level Atlanta Center
Mon 12:05:10 AM 34.1944 -82.5569 356° North 462 532 41,000  Level Atlanta Center
Mon 12:06:10 AM 34.3197 -82.5675 356° North 462 532 41,000  Level Atlanta Center
Mon 12:07:10 AM 34.4472 -82.5728 358° North 462 532 41,000  Level Atlanta Center
Mon 12:08:10 AM 34.5767 -82.5856 355° North 462 532 41,000  Level Atlanta Center
Mon 12:09:10 AM 34.7042 -82.5936 357° North 462 532 41,000  Level Atlanta Center
Mon 12:10:10 AM 34.8314 -82.6039 356° North 462 532 41,000  Level Atlanta Center
Mon 12:11:10 AM 34.9631 -82.6194 354° North 462 532 41,000  Level Atlanta Center
Mon 12:12:10 AM 35.0925 -82.6275 357° North 462 532 41,000  Level Atlanta Center
Mon 12:13:10 AM 35.2219 -82.6353 357° North 462 532 41,000  Level Atlanta Center
Mon 12:14:10 AM 35.3514 -82.6458 356° North 462 532 41,000  Level Atlanta Center
Mon 12:15:10 AM 35.4831 -82.6564 356° North 462 532 41,000  Level Atlanta Center
Mon 12:16:10 AM 35.6147 -82.6669 356° North 462 532 41,000  Level Atlanta Center
Mon 12:17:10 AM 35.7461 -82.6750 357° North 462 532 41,000  Level Atlanta Center
Mon 12:18:10 AM 35.8736 -82.6883 355° North 462 532 41,000  Level Atlanta Center
Mon 12:19:10 AM 36.0031 -82.6964 357° North 462 532 41,000  Level Atlanta Center
Mon 12:20:10 AM 36.1283 -82.7072 356° North 457 526 41,000  Level Atlanta Center
Mon 12:21:10 AM 36.2578 -82.7178 356° North 462 532 41,000  Level Atlanta Center
Mon 12:23:03 AM 36.5128 -82.7381 356° North 460 529 41,000  Level Indianapolis Center
Mon 12:24:03 AM 36.6394 -82.7478 356° North 460 529 41,000  Level Indianapolis Center
Mon 12:25:03 AM 36.7661 -82.7575 356° North 459 528 41,000  Level Indianapolis Center
Mon 12:26:04 AM 36.8903 -82.7669 357° North 461 531 41,000  Level Indianapolis Center
Mon 12:27:04 AM 37.0189 -82.7794 356° North 463 533 41,000  Level Indianapolis Center
Mon 12:28:04 AM 37.1464 -82.7900 356° North 463 533 41,000  Level Indianapolis Center
Mon 12:29:04 AM 37.2756 -82.8006 356° North 463 533 41,000  Level Indianapolis Center
Mon 12:30:04 AM 37.4036 -82.8114 356° North 463 533 41,000  Level Indianapolis Center
Mon 12:31:05 AM 37.5322 -82.8219 356° North 463 533 41,000  Level Indianapolis Center
Mon 12:32:05 AM 37.6597 -82.8325 356° North 463 533 41,000  Level Indianapolis Center
Mon 12:33:05 AM 37.7886 -82.8433 356° North 462 532 41,000  Level Indianapolis Center
Mon 12:34:05 AM 37.9156 -82.8542 356° North 459 528 41,000 -550 Level Indianapolis Center
Mon 12:35:05 AM 38.0414 -82.8653 356° North 456 525 39,900 -1,785 Descending Indianapolis Center
Mon 12:36:06 AM 38.1664 -82.8747 357° North 451 519 37,400 -2,678 Descending Indianapolis Center
Mon 12:37:06 AM 38.2967 -82.8856 356° North 461 531 34,500 -3,050 Descending Indianapolis Center
Mon 12:38:06 AM 38.4328 -82.8972 356° North 481 554 31,300 -2,850 Descending Indianapolis Center
Mon 12:39:06 AM 38.5678 -82.9106 356° North 486 559 28,800 -2,550 Descending Indianapolis Center
Mon 12:40:06 AM 38.7053 -82.9203 357° North 472 543 26,200 -2,479 Descending Indianapolis Center
Mon 12:41:07 AM 38.8281 -82.9303 356° North 450 518 23,800 -2,281 Descending Indianapolis Center
Mon 12:42:07 AM 38.9417 -82.9408 356° North 421 484 21,600 -2,200 Descending Indianapolis Center
Mon 12:43:07 AM 39.0522 -82.9497 356° North 403 464 19,400 -2,150 Descending Indianapolis Center
Mon 12:44:07 AM 39.1572 -82.9600 356° North 385 443 17,300 -2,021 Descending Indianapolis Center
Mon 12:44:42 AM 39.2131 -82.9661 355° North 371 427 16,200 -2,049 Descending Indianapolis Center
Mon 12:44:48 AM 39.2278 -82.9658 North 370 426 15,900 -1,615 Descending Indianapolis Center
Mon 12:45:08 AM 39.2467 -82.9667 358° North 378 435 15,500 -2,164 Descending Indianapolis Center
Mon 12:45:49 AM 39.3297 -82.9767 355° North 362 417 13,700 -2,100 Descending Indianapolis Center
Mon 12:46:08 AM 39.3461 -82.9767 360° North 367 422 13,400 -2,000 Descending Indianapolis Center
Mon 12:46:49 AM 39.4258 -82.9839 356° North 351 404 11,700 -2,100 Descending Indianapolis Center
Mon 12:47:08 AM 39.4425 -82.9847 358° North 355 409 11,300 -1,672 Descending Indianapolis Center
Mon 12:47:50 AM 39.5194 -82.9933 355° North 334 384 10,000 -1,300 Descending Indianapolis Center
Mon 12:48:08 AM 39.5339 -82.9919 North 339 390 10,000 -1,000 Level Indianapolis Center
Mon 12:48:50 AM 39.5964 -83.0003 354° North 272 313 9,000 -1,200 Descending Indianapolis Center
Mon 12:49:08 AM 39.6097 -82.9994 North 286 329 8,800 -1,377 Descending Indianapolis Center
Mon 12:49:51 AM 39.6736 -83.0072 355° North 274 315 7,600 -1,377 Descending Indianapolis Center
Mon 12:50:09 AM 39.6864 -83.0069 North 280 322 7,400 -1,475 Descending Indianapolis Center
Mon 12:50:52 AM 39.7506 -83.0142 355° North 274 315 6,100 -1,500 Descending Indianapolis Center
Mon 12:51:09 AM 39.7619 -83.0125 North 279 321 5,900 -700 Descending Indianapolis Center
Mon 12:51:52 AM 39.8281 -83.0183 356° North 262 302 5,400 -700 Descending Indianapolis Center
Mon 12:52:09 AM 39.8475 -83.0206 355° North 269 310 5,200 -689 Descending Indianapolis Center
Mon 12:52:53 AM 39.8922 -83.0261 355° North 224 258 4,700 -800 Descending Indianapolis Center
Mon 12:53:09 AM 39.9097 -83.0264 359° North 248 285 4,400 -1,100 Descending Indianapolis Center
Mon 12:53:53 AM 39.9508 -83.0300 356° North 201 231 3,600 -1,082 Descending Indianapolis Center
Mon 12:54:10 AM 39.9664 -83.0308 358° North 225 259 3,300 -885 Descending Indianapolis Center
Mon 12:54:54 AM 39.9950 -83.0289 North 136 157 2,700 -800 Descending Indianapolis Center
Mon 12:55:10 AM 40.0000 -83.0194 55° Northeast 171 197 2,500 -689 Descending Indianapolis Center
Mon 12:55:55 AM 39.9972 -82.9828 96° East 126 145 2,000 -700 Descending Indianapolis Center
Mon 12:56:10 AM 39.9972 -82.9711 90° East 150 173 1,800 -700 Descending Indianapolis Center
Mon 12:56:55 AM 39.9953 -82.9389 94° East 121 139 1,300 -700 Descending Indianapolis Center
Mon 12:57:10 AM 39.9950 -82.9269 92° East 133 153 1,100 -237 Descending Indianapolis Center
Mon 12:58:11 AM 39.9922 -82.8828 95° East 131 151 1,000 -98 Descending Indianapolis Center

Login

Don't have an account? Register now (free) for customized features, flight alerts, and more!